sensor_id;sensor_type;location;lat;lon;timestamp;P1;durP1;ratioP1;P2;durP2;ratioP2
76403;SDS011;65232;48.358;2.122;2024-01-16T00:00:17;41.45;;;25.88;;
76403;SDS011;65232;48.358;2.122;2024-01-16T00:00:43;40.13;;;27.00;;
76403;SDS011;65232;48.358;2.122;2024-01-16T00:01:08;35.58;;;25.67;;
76403;SDS011;65232;48.358;2.122;2024-01-16T00:01:34;39.53;;;26.20;;
76403;SDS011;65232;48.358;2.122;2024-01-16T00:01:59;41.63;;;27.08;;
76403;SDS011;65232;48.358;2.122;2024-01-16T00:02:25;41.70;;;27.08;;
76403;SDS011;65232;48.358;2.122;2024-01-16T00:02:50;36.60;;;24.90;;
76403;SDS011;65232;48.358;2.122;2024-01-16T00:03:15;35.58;;;24.00;;
76403;SDS011;65232;48.358;2.122;2024-01-16T00:03:41;40.38;;;26.02;;
76403;SDS011;65232;48.358;2.122;2024-01-16T00:04:06;38.67;;;25.13;;
76403;SDS011;65232;48.358;2.122;2024-01-16T00:04:33;38.78;;;25.45;;
76403;SDS011;65232;48.358;2.122;2024-01-16T00:04:58;39.38;;;25.55;;
76403;SDS011;65232;48.358;2.122;2024-01-16T00:05:24;39.28;;;25.65;;
76403;SDS011;65232;48.358;2.122;2024-01-16T00:05:49;42.60;;;26.58;;
76403;SDS011;65232;48.358;2.122;2024-01-16T00:06:14;37.85;;;25.15;;
76403;SDS011;65232;48.358;2.122;2024-01-16T00:06:40;37.25;;;23.55;;
76403;SDS011;65232;48.358;2.122;2024-01-16T00:07:06;40.03;;;24.95;;
76403;SDS011;65232;48.358;2.122;2024-01-16T00:07:31;36.42;;;24.17;;
76403;SDS011;65232;48.358;2.122;2024-01-16T00:07:58;39.38;;;25.63;;
76403;SDS011;65232;48.358;2.122;2024-01-16T00:08:25;41.25;;;26.85;;
76403;SDS011;65232;48.358;2.122;2024-01-16T00:08:50;39.60;;;25.65;;
76403;SDS011;65232;48.358;2.122;2024-01-16T00:09:15;41.83;;;27.30;;
76403;SDS011;65232;48.358;2.122;2024-01-16T00:09:41;38.88;;;26.50;;
76403;SDS011;65232;48.358;2.122;2024-01-16T00:10:09;37.83;;;26.73;;
76403;SDS011;65232;48.358;2.122;2024-01-16T00:10:34;37.75;;;25.10;;
76403;SDS011;65232;48.358;2.122;2024-01-16T00:11:01;42.42;;;26.70;;
76403;SDS011;65232;48.358;2.122;2024-01-16T00:11:27;46.05;;;26.83;;
76403;SDS011;65232;48.358;2.122;2024-01-16T00:11:52;41.05;;;26.67;;
76403;SDS011;65232;48.358;2.122;2024-01-16T00:12:18;37.83;;;25.30;;
76403;SDS011;65232;48.358;2.122;2024-01-16T00:12:43;39.30;;;25.90;;
76403;SDS011;65232;48.358;2.122;2024-01-16T00:13:09;38.72;;;26.52;;
76403;SDS011;65232;48.358;2.122;2024-01-16T00:13:34;40.70;;;27.92;;
76403;SDS011;65232;48.358;2.122;2024-01-16T00:14:00;39.97;;;26.30;;
76403;SDS011;65232;48.358;2.122;2024-01-16T00:14:25;35.40;;;22.65;;
76403;SDS011;65232;48.358;2.122;2024-01-16T00:14:50;39.75;;;26.73;;
76403;SDS011;65232;48.358;2.122;2024-01-16T00:15:16;36.35;;;23.23;;
76403;SDS011;65232;48.358;2.122;2024-01-16T00:15:41;36.25;;;23.13;;
76403;SDS011;65232;48.358;2.122;2024-01-16T00:16:07;39.17;;;24.83;;
76403;SDS011;65232;48.358;2.122;2024-01-16T00:16:33;34.10;;;22.67;;
76403;SDS011;65232;48.358;2.122;2024-01-16T00:16:58;38.75;;;24.95;;
76403;SDS011;65232;48.358;2.122;2024-01-16T00:17:24;34.58;;;22.25;;
76403;SDS011;65232;48.358;2.122;2024-01-16T00:17:49;38.10;;;24.33;;
76403;SDS011;65232;48.358;2.122;2024-01-16T00:18:16;38.47;;;24.10;;
76403;SDS011;65232;48.358;2.122;2024-01-16T00:18:41;35.90;;;23.10;;
76403;SDS011;65232;48.358;2.122;2024-01-16T00:19:07;39.60;;;24.80;;
76403;SDS011;65232;48.358;2.122;2024-01-16T00:19:32;38.03;;;25.42;;
76403;SDS011;65232;48.358;2.122;2024-01-16T00:19:57;35.95;;;23.63;;
76403;SDS011;65232;48.358;2.122;2024-01-16T00:20:25;36.00;;;23.23;;
76403;SDS011;65232;48.358;2.122;2024-01-16T00:20:51;36.10;;;23.65;;
76403;SDS011;65232;48.358;2.122;2024-01-16T00:21:16;33.63;;;21.90;;
76403;SDS011;65232;48.358;2.122;2024-01-16T00:21:44;38.35;;;23.48;;
76403;SDS011;65232;48.358;2.122;2024-01-16T00:22:13;36.10;;;23.00;;
76403;SDS011;65232;48.358;2.122;2024-01-16T00:22:38;34.15;;;22.38;;
76403;SDS011;65232;48.358;2.122;2024-01-16T00:23:04;35.72;;;22.90;;
76403;SDS011;65232;48.358;2.122;2024-01-16T00:23:29;32.90;;;23.33;;
76403;SDS011;65232;48.358;2.122;2024-01-16T00:23:57;38.05;;;24.05;;
76403;SDS011;65232;48.358;2.122;2024-01-16T00:24:23;37.10;;;24.92;;
76403;SDS011;65232;48.358;2.122;2024-01-16T00:24:48;38.88;;;25.25;;
76403;SDS011;65232;48.358;2.122;2024-01-16T00:25:13;37.28;;;24.08;;
76403;SDS011;65232;48.358;2.122;2024-01-16T00:25:39;40.28;;;26.98;;
76403;SDS011;65232;48.358;2.122;2024-01-16T00:26:05;42.00;;;26.83;;
76403;SDS011;65232;48.358;2.122;2024-01-16T00:26:30;42.85;;;26.40;;
76403;SDS011;65232;48.358;2.122;2024-01-16T00:26:56;39.97;;;25.25;;
76403;SDS011;65232;48.358;2.122;2024-01-16T00:27:21;39.75;;;25.85;;
76403;SDS011;65232;48.358;2.122;2024-01-16T00:27:47;43.17;;;25.35;;
76403;SDS011;65232;48.358;2.122;2024-01-16T00:28:12;40.85;;;24.85;;
76403;SDS011;65232;48.358;2.122;2024-01-16T00:28:37;40.03;;;25.98;;
76403;SDS011;65232;48.358;2.122;2024-01-16T00:29:03;38.70;;;25.75;;
76403;SDS011;65232;48.358;2.122;2024-01-16T00:29:28;40.35;;;26.48;;
76403;SDS011;65232;48.358;2.122;2024-01-16T00:29:55;41.10;;;25.38;;
76403;SDS011;65232;48.358;2.122;2024-01-16T00:30:21;43.15;;;26.60;;
76403;SDS011;65232;48.358;2.122;2024-01-16T00:30:46;45.88;;;28.77;;
76403;SDS011;65232;48.358;2.122;2024-01-16T00:31:12;42.97;;;25.17;;
76403;SDS011;65232;48.358;2.122;2024-01-16T00:31:38;41.90;;;25.42;;
76403;SDS011;65232;48.358;2.122;2024-01-16T00:32:04;42.10;;;24.27;;
76403;SDS011;65232;48.358;2.122;2024-01-16T00:32:29;43.25;;;27.52;;
76403;SDS011;65232;48.358;2.122;2024-01-16T00:32:55;36.42;;;25.38;;
76403;SDS011;65232;48.358;2.122;2024-01-16T00:33:20;41.00;;;26.58;;
76403;SDS011;65232;48.358;2.122;2024-01-16T00:33:46;38.53;;;25.35;;
76403;SDS011;65232;48.358;2.122;2024-01-16T00:34:11;39.05;;;25.90;;
76403;SDS011;65232;48.358;2.122;2024-01-16T00:34:37;38.33;;;25.55;;
76403;SDS011;65232;48.358;2.122;2024-01-16T00:35:02;34.67;;;22.45;;
76403;SDS011;65232;48.358;2.122;2024-01-16T00:35:54;35.17;;;23.35;;
76403;SDS011;65232;48.358;2.122;2024-01-16T00:36:19;39.05;;;24.30;;
76403;SDS011;65232;48.358;2.122;2024-01-16T00:36:45;36.58;;;23.98;;
76403;SDS011;65232;48.358;2.122;2024-01-16T00:37:10;39.55;;;24.52;;
76403;SDS011;65232;48.358;2.122;2024-01-16T00:37:36;39.78;;;25.23;;
76403;SDS011;65232;48.358;2.122;2024-01-16T00:38:02;41.85;;;25.88;;
76403;SDS011;65232;48.358;2.122;2024-01-16T00:38:28;39.63;;;25.33;;
76403;SDS011;65232;48.358;2.122;2024-01-16T00:38:53;35.70;;;24.33;;
76403;SDS011;65232;48.358;2.122;2024-01-16T00:39:19;37.35;;;24.88;;
76403;SDS011;65232;48.358;2.122;2024-01-16T00:39:44;37.05;;;24.60;;
76403;SDS011;65232;48.358;2.122;2024-01-16T00:40:10;37.10;;;25.42;;
76403;SDS011;65232;48.358;2.122;2024-01-16T00:40:36;37.40;;;24.52;;
76403;SDS011;65232;48.358;2.122;2024-01-16T00:41:01;39.65;;;24.88;;
76403;SDS011;65232;48.358;2.122;2024-01-16T00:41:26;38.20;;;25.55;;
76403;SDS011;65232;48.358;2.122;2024-01-16T00:41:52;42.08;;;25.45;;
76403;SDS011;65232;48.358;2.122;2024-01-16T00:42:17;34.58;;;24.90;;
76403;SDS011;65232;48.358;2.122;2024-01-16T00:42:43;39.88;;;23.45;;
76403;SDS011;65232;48.358;2.122;2024-01-16T00:43:08;39.33;;;24.50;;
76403;SDS011;65232;48.358;2.122;2024-01-16T00:43:34;35.95;;;23.75;;
76403;SDS011;65232;48.358;2.122;2024-01-16T00:44:00;37.80;;;24.00;;
76403;SDS011;65232;48.358;2.122;2024-01-16T00:44:25;38.15;;;22.10;;
76403;SDS011;65232;48.358;2.122;2024-01-16T00:44:51;35.97;;;23.25;;
76403;SDS011;65232;48.358;2.122;2024-01-16T00:45:16;34.70;;;21.77;;
76403;SDS011;65232;48.358;2.122;2024-01-16T00:45:42;39.38;;;23.88;;
76403;SDS011;65232;48.358;2.122;2024-01-16T00:46:07;38.90;;;24.10;;
76403;SDS011;65232;48.358;2.122;2024-01-16T00:46:33;40.58;;;24.50;;
76403;SDS011;65232;48.358;2.122;2024-01-16T00:46:58;34.58;;;23.25;;
76403;SDS011;65232;48.358;2.122;2024-01-16T00:47:26;37.75;;;23.88;;
76403;SDS011;65232;48.358;2.122;2024-01-16T00:47:51;35.22;;;24.08;;
76403;SDS011;65232;48.358;2.122;2024-01-16T00:48:17;36.67;;;22.15;;
76403;SDS011;65232;48.358;2.122;2024-01-16T00:48:44;38.80;;;23.95;;
76403;SDS011;65232;48.358;2.122;2024-01-16T00:49:10;36.83;;;22.23;;
76403;SDS011;65232;48.358;2.122;2024-01-16T00:49:35;39.63;;;24.58;;
76403;SDS011;65232;48.358;2.122;2024-01-16T00:50:01;39.65;;;23.65;;
76403;SDS011;65232;48.358;2.122;2024-01-16T00:50:27;35.80;;;22.90;;
76403;SDS011;65232;48.358;2.122;2024-01-16T00:50:52;35.97;;;22.95;;
76403;SDS011;65232;48.358;2.122;2024-01-16T00:51:18;33.75;;;21.83;;
76403;SDS011;65232;48.358;2.122;2024-01-16T00:51:43;34.88;;;23.10;;
76403;SDS011;65232;48.358;2.122;2024-01-16T00:52:09;34.17;;;20.40;;
76403;SDS011;65232;48.358;2.122;2024-01-16T00:52:35;33.55;;;20.60;;
76403;SDS011;65232;48.358;2.122;2024-01-16T00:53:00;31.38;;;21.58;;
76403;SDS011;65232;48.358;2.122;2024-01-16T00:53:26;33.92;;;21.65;;
76403;SDS011;65232;48.358;2.122;2024-01-16T00:53:52;37.75;;;21.40;;
76403;SDS011;65232;48.358;2.122;2024-01-16T00:54:17;32.33;;;20.48;;
76403;SDS011;65232;48.358;2.122;2024-01-16T00:54:43;32.50;;;21.30;;
76403;SDS011;65232;48.358;2.122;2024-01-16T00:55:09;33.40;;;20.92;;
76403;SDS011;65232;48.358;2.122;2024-01-16T00:55:34;31.02;;;20.98;;
76403;SDS011;65232;48.358;2.122;2024-01-16T00:55:59;33.92;;;21.50;;
76403;SDS011;65232;48.358;2.122;2024-01-16T00:56:25;34.30;;;21.88;;
76403;SDS011;65232;48.358;2.122;2024-01-16T00:56:52;34.25;;;21.17;;
76403;SDS011;65232;48.358;2.122;2024-01-16T00:57:24;27.83;;;18.85;;
76403;SDS011;65232;48.358;2.122;2024-01-16T00:57:51;32.80;;;21.17;;
76403;SDS011;65232;48.358;2.122;2024-01-16T00:58:16;34.30;;;20.92;;
76403;SDS011;65232;48.358;2.122;2024-01-16T00:58:42;36.10;;;22.73;;
76403;SDS011;65232;48.358;2.122;2024-01-16T00:59:07;32.17;;;22.60;;
76403;SDS011;65232;48.358;2.122;2024-01-16T00:59:33;35.45;;;22.10;;
76403;SDS011;65232;48.358;2.122;2024-01-16T00:59:58;35.90;;;23.08;;
76403;SDS011;65232;48.358;2.122;2024-01-16T01:00:23;35.63;;;22.63;;
76403;SDS011;65232;48.358;2.122;2024-01-16T01:00:49;37.58;;;23.75;;
76403;SDS011;65232;48.358;2.122;2024-01-16T01:01:15;35.83;;;22.25;;
76403;SDS011;65232;48.358;2.122;2024-01-16T01:01:40;35.88;;;23.83;;
76403;SDS011;65232;48.358;2.122;2024-01-16T01:02:06;38.88;;;24.92;;
76403;SDS011;65232;48.358;2.122;2024-01-16T01:02:31;37.47;;;23.77;;
76403;SDS011;65232;48.358;2.122;2024-01-16T01:02:57;36.85;;;23.38;;
76403;SDS011;65232;48.358;2.122;2024-01-16T01:03:23;36.72;;;23.85;;
76403;SDS011;65232;48.358;2.122;2024-01-16T01:03:49;35.60;;;23.10;;
76403;SDS011;65232;48.358;2.122;2024-01-16T01:04:16;39.03;;;24.10;;
76403;SDS011;65232;48.358;2.122;2024-01-16T01:04:42;39.17;;;23.80;;
76403;SDS011;65232;48.358;2.122;2024-01-16T01:05:08;40.58;;;24.42;;
76403;SDS011;65232;48.358;2.122;2024-01-16T01:05:33;34.88;;;22.45;;
76403;SDS011;65232;48.358;2.122;2024-01-16T01:05:59;39.38;;;25.67;;
76403;SDS011;65232;48.358;2.122;2024-01-16T01:06:25;36.45;;;23.92;;
76403;SDS011;65232;48.358;2.122;2024-01-16T01:06:51;33.88;;;23.10;;
76403;SDS011;65232;48.358;2.122;2024-01-16T01:07:16;33.60;;;23.33;;
76403;SDS011;65232;48.358;2.122;2024-01-16T01:07:42;33.80;;;22.40;;
76403;SDS011;65232;48.358;2.122;2024-01-16T01:08:07;36.28;;;22.85;;
76403;SDS011;65232;48.358;2.122;2024-01-16T01:08:33;35.50;;;21.42;;
76403;SDS011;65232;48.358;2.122;2024-01-16T01:08:58;39.28;;;22.13;;
76403;SDS011;65232;48.358;2.122;2024-01-16T01:09:24;35.45;;;22.27;;
76403;SDS011;65232;48.358;2.122;2024-01-16T01:09:49;39.95;;;25.08;;
76403;SDS011;65232;48.358;2.122;2024-01-16T01:10:15;39.20;;;25.00;;
76403;SDS011;65232;48.358;2.122;2024-01-16T01:10:40;42.78;;;25.75;;
76403;SDS011;65232;48.358;2.122;2024-01-16T01:11:06;37.53;;;24.02;;
76403;SDS011;65232;48.358;2.122;2024-01-16T01:11:31;39.35;;;22.88;;
76403;SDS011;65232;48.358;2.122;2024-01-16T01:11:56;31.85;;;19.88;;
76403;SDS011;65232;48.358;2.122;2024-01-16T01:12:22;33.85;;;20.92;;
76403;SDS011;65232;48.358;2.122;2024-01-16T01:12:48;30.48;;;19.85;;
76403;SDS011;65232;48.358;2.122;2024-01-16T01:13:14;33.72;;;20.48;;
76403;SDS011;65232;48.358;2.122;2024-01-16T01:13:39;31.38;;;20.02;;
76403;SDS011;65232;48.358;2.122;2024-01-16T01:14:05;31.90;;;19.67;;
76403;SDS011;65232;48.358;2.122;2024-01-16T01:14:30;33.15;;;21.75;;
76403;SDS011;65232;48.358;2.122;2024-01-16T01:14:56;31.70;;;21.38;;
76403;SDS011;65232;48.358;2.122;2024-01-16T01:15:22;37.45;;;22.45;;
76403;SDS011;65232;48.358;2.122;2024-01-16T01:15:48;32.17;;;20.60;;
76403;SDS011;65232;48.358;2.122;2024-01-16T01:16:13;31.92;;;20.95;;
76403;SDS011;65232;48.358;2.122;2024-01-16T01:16:39;30.23;;;20.80;;
76403;SDS011;65232;48.358;2.122;2024-01-16T01:17:04;33.15;;;21.85;;
76403;SDS011;65232;48.358;2.122;2024-01-16T01:17:30;32.33;;;19.67;;
76403;SDS011;65232;48.358;2.122;2024-01-16T01:17:55;30.98;;;21.15;;
76403;SDS011;65232;48.358;2.122;2024-01-16T01:18:21;35.05;;;20.80;;
76403;SDS011;65232;48.358;2.122;2024-01-16T01:18:47;34.53;;;21.20;;
76403;SDS011;65232;48.358;2.122;2024-01-16T01:19:13;33.67;;;20.98;;
76403;SDS011;65232;48.358;2.122;2024-01-16T01:19:39;32.88;;;20.73;;
76403;SDS011;65232;48.358;2.122;2024-01-16T01:20:04;31.80;;;20.73;;
76403;SDS011;65232;48.358;2.122;2024-01-16T01:20:31;33.72;;;20.42;;
76403;SDS011;65232;48.358;2.122;2024-01-16T01:20:56;33.13;;;20.60;;
76403;SDS011;65232;48.358;2.122;2024-01-16T01:21:22;33.55;;;21.50;;
76403;SDS011;65232;48.358;2.122;2024-01-16T01:21:47;30.63;;;19.70;;
76403;SDS011;65232;48.358;2.122;2024-01-16T01:22:13;31.92;;;21.23;;
76403;SDS011;65232;48.358;2.122;2024-01-16T01:22:38;33.00;;;19.88;;
76403;SDS011;65232;48.358;2.122;2024-01-16T01:23:04;29.35;;;21.00;;
76403;SDS011;65232;48.358;2.122;2024-01-16T01:23:29;35.50;;;21.48;;
76403;SDS011;65232;48.358;2.122;2024-01-16T01:23:55;32.55;;;22.90;;
76403;SDS011;65232;48.358;2.122;2024-01-16T01:24:20;32.15;;;20.05;;
76403;SDS011;65232;48.358;2.122;2024-01-16T01:24:45;30.48;;;20.95;;
76403;SDS011;65232;48.358;2.122;2024-01-16T01:25:11;32.08;;;20.90;;
76403;SDS011;65232;48.358;2.122;2024-01-16T01:25:37;32.63;;;22.30;;
76403;SDS011;65232;48.358;2.122;2024-01-16T01:26:02;30.70;;;20.67;;
76403;SDS011;65232;48.358;2.122;2024-01-16T01:26:29;33.33;;;21.15;;
76403;SDS011;65232;48.358;2.122;2024-01-16T01:26:55;33.78;;;20.98;;
76403;SDS011;65232;48.358;2.122;2024-01-16T01:27:20;30.98;;;20.35;;
76403;SDS011;65232;48.358;2.122;2024-01-16T01:27:46;32.95;;;20.15;;
76403;SDS011;65232;48.358;2.122;2024-01-16T01:28:12;30.77;;;21.55;;
76403;SDS011;65232;48.358;2.122;2024-01-16T01:28:37;34.20;;;20.92;;
76403;SDS011;65232;48.358;2.122;2024-01-16T01:29:05;30.60;;;20.50;;
76403;SDS011;65232;48.358;2.122;2024-01-16T01:29:30;34.95;;;21.10;;
76403;SDS011;65232;48.358;2.122;2024-01-16T01:29:56;30.92;;;21.48;;
76403;SDS011;65232;48.358;2.122;2024-01-16T01:30:23;33.20;;;21.45;;
76403;SDS011;65232;48.358;2.122;2024-01-16T01:30:48;31.27;;;21.02;;
76403;SDS011;65232;48.358;2.122;2024-01-16T01:31:14;34.08;;;20.83;;
76403;SDS011;65232;48.358;2.122;2024-01-16T01:31:39;33.50;;;20.48;;
76403;SDS011;65232;48.358;2.122;2024-01-16T01:32:04;29.05;;;19.33;;
76403;SDS011;65232;48.358;2.122;2024-01-16T01:32:30;30.17;;;20.00;;
76403;SDS011;65232;48.358;2.122;2024-01-16T01:32:55;26.88;;;18.58;;
76403;SDS011;65232;48.358;2.122;2024-01-16T01:33:21;29.30;;;18.58;;
76403;SDS011;65232;48.358;2.122;2024-01-16T01:33:46;31.95;;;20.00;;
76403;SDS011;65232;48.358;2.122;2024-01-16T01:34:12;32.47;;;20.73;;
76403;SDS011;65232;48.358;2.122;2024-01-16T01:34:38;31.80;;;20.40;;
76403;SDS011;65232;48.358;2.122;2024-01-16T01:35:07;34.17;;;21.25;;
76403;SDS011;65232;48.358;2.122;2024-01-16T01:35:32;32.63;;;20.98;;
76403;SDS011;65232;48.358;2.122;2024-01-16T01:35:58;32.30;;;21.00;;
76403;SDS011;65232;48.358;2.122;2024-01-16T01:36:23;34.70;;;21.45;;
76403;SDS011;65232;48.358;2.122;2024-01-16T01:36:49;32.28;;;20.98;;
76403;SDS011;65232;48.358;2.122;2024-01-16T01:37:14;31.77;;;22.13;;
76403;SDS011;65232;48.358;2.122;2024-01-16T01:37:39;32.75;;;20.45;;
76403;SDS011;65232;48.358;2.122;2024-01-16T01:38:05;33.22;;;21.90;;
76403;SDS011;65232;48.358;2.122;2024-01-16T01:38:32;32.25;;;21.25;;
76403;SDS011;65232;48.358;2.122;2024-01-16T01:38:58;35.58;;;22.90;;
76403;SDS011;65232;48.358;2.122;2024-01-16T01:39:23;34.88;;;21.35;;
76403;SDS011;65232;48.358;2.122;2024-01-16T01:39:49;36.17;;;22.38;;
76403;SDS011;65232;48.358;2.122;2024-01-16T01:40:14;35.67;;;23.05;;
76403;SDS011;65232;48.358;2.122;2024-01-16T01:40:43;29.85;;;20.23;;
76403;SDS011;65232;48.358;2.122;2024-01-16T01:41:08;36.08;;;22.08;;
76403;SDS011;65232;48.358;2.122;2024-01-16T01:41:37;33.45;;;22.60;;
76403;SDS011;65232;48.358;2.122;2024-01-16T01:42:02;35.85;;;21.67;;
76403;SDS011;65232;48.358;2.122;2024-01-16T01:42:28;34.58;;;22.38;;
76403;SDS011;65232;48.358;2.122;2024-01-16T01:42:54;34.65;;;22.88;;
76403;SDS011;65232;48.358;2.122;2024-01-16T01:43:20;33.75;;;21.90;;
76403;SDS011;65232;48.358;2.122;2024-01-16T01:43:47;35.05;;;22.27;;
76403;SDS011;65232;48.358;2.122;2024-01-16T01:44:12;32.40;;;21.52;;
76403;SDS011;65232;48.358;2.122;2024-01-16T01:44:40;36.15;;;22.50;;
76403;SDS011;65232;48.358;2.122;2024-01-16T01:45:07;35.33;;;22.67;;
76403;SDS011;65232;48.358;2.122;2024-01-16T01:45:33;34.28;;;22.85;;
76403;SDS011;65232;48.358;2.122;2024-01-16T01:46:43;34.85;;;23.13;;
76403;SDS011;65232;48.358;2.122;2024-01-16T01:47:10;37.28;;;23.58;;
76403;SDS011;65232;48.358;2.122;2024-01-16T01:47:35;37.78;;;21.63;;
76403;SDS011;65232;48.358;2.122;2024-01-16T01:48:01;34.33;;;21.70;;
76403;SDS011;65232;48.358;2.122;2024-01-16T01:48:32;38.33;;;22.77;;
76403;SDS011;65232;48.358;2.122;2024-01-16T01:48:58;34.78;;;22.77;;
76403;SDS011;65232;48.358;2.122;2024-01-16T01:49:23;34.97;;;22.02;;
76403;SDS011;65232;48.358;2.122;2024-01-16T01:49:50;36.47;;;21.13;;
76403;SDS011;65232;48.358;2.122;2024-01-16T01:50:42;31.58;;;19.45;;
76403;SDS011;65232;48.358;2.122;2024-01-16T01:51:08;33.15;;;20.73;;
76403;SDS011;65232;48.358;2.122;2024-01-16T01:51:35;36.58;;;19.95;;
76403;SDS011;65232;48.358;2.122;2024-01-16T01:52:00;35.22;;;22.15;;
76403;SDS011;65232;48.358;2.122;2024-01-16T01:52:26;29.25;;;21.30;;
76403;SDS011;65232;48.358;2.122;2024-01-16T01:52:51;31.65;;;20.77;;
76403;SDS011;65232;48.358;2.122;2024-01-16T01:53:17;32.00;;;21.58;;
76403;SDS011;65232;48.358;2.122;2024-01-16T01:53:42;34.05;;;21.75;;
76403;SDS011;65232;48.358;2.122;2024-01-16T01:54:09;36.83;;;21.80;;
76403;SDS011;65232;48.358;2.122;2024-01-16T01:55:02;31.38;;;19.70;;
76403;SDS011;65232;48.358;2.122;2024-01-16T01:55:28;33.03;;;20.08;;
76403;SDS011;65232;48.358;2.122;2024-01-16T01:55:54;33.55;;;20.83;;
76403;SDS011;65232;48.358;2.122;2024-01-16T01:56:20;33.45;;;21.17;;
76403;SDS011;65232;48.358;2.122;2024-01-16T01:56:47;31.92;;;19.50;;
76403;SDS011;65232;48.358;2.122;2024-01-16T01:57:14;33.15;;;21.73;;
76403;SDS011;65232;48.358;2.122;2024-01-16T01:57:39;33.28;;;21.30;;
76403;SDS011;65232;48.358;2.122;2024-01-16T01:58:07;32.65;;;22.02;;
76403;SDS011;65232;48.358;2.122;2024-01-16T01:58:33;30.52;;;20.85;;
76403;SDS011;65232;48.358;2.122;2024-01-16T01:59:25;35.17;;;20.05;;
76403;SDS011;65232;48.358;2.122;2024-01-16T01:59:50;35.65;;;22.10;;
76403;SDS011;65232;48.358;2.122;2024-01-16T02:00:17;31.25;;;21.35;;
76403;SDS011;65232;48.358;2.122;2024-01-16T02:00:43;33.35;;;22.27;;
76403;SDS011;65232;48.358;2.122;2024-01-16T02:01:09;35.10;;;21.92;;
76403;SDS011;65232;48.358;2.122;2024-01-16T02:01:36;34.72;;;21.15;;
76403;SDS011;65232;48.358;2.122;2024-01-16T02:02:03;35.30;;;21.65;;
76403;SDS011;65232;48.358;2.122;2024-01-16T02:02:30;35.72;;;21.67;;
76403;SDS011;65232;48.358;2.122;2024-01-16T02:02:56;36.58;;;22.83;;
76403;SDS011;65232;48.358;2.122;2024-01-16T02:03:22;37.20;;;23.33;;
76403;SDS011;65232;48.358;2.122;2024-01-16T02:03:51;35.25;;;21.65;;
76403;SDS011;65232;48.358;2.122;2024-01-16T02:04:44;35.58;;;21.33;;
76403;SDS011;65232;48.358;2.122;2024-01-16T02:05:11;34.92;;;21.42;;
76403;SDS011;65232;48.358;2.122;2024-01-16T02:05:37;39.92;;;23.05;;
76403;SDS011;65232;48.358;2.122;2024-01-16T02:06:04;40.55;;;23.75;;
76403;SDS011;65232;48.358;2.122;2024-01-16T02:06:29;37.65;;;23.02;;
76403;SDS011;65232;48.358;2.122;2024-01-16T02:06:54;36.00;;;23.00;;
76403;SDS011;65232;48.358;2.122;2024-01-16T02:07:21;36.70;;;23.50;;
76403;SDS011;65232;48.358;2.122;2024-01-16T02:07:47;39.15;;;24.08;;
76403;SDS011;65232;48.358;2.122;2024-01-16T02:08:12;39.10;;;23.67;;
76403;SDS011;65232;48.358;2.122;2024-01-16T02:08:39;37.15;;;23.65;;
76403;SDS011;65232;48.358;2.122;2024-01-16T02:09:04;40.28;;;25.05;;
76403;SDS011;65232;48.358;2.122;2024-01-16T02:09:32;37.50;;;25.25;;
76403;SDS011;65232;48.358;2.122;2024-01-16T02:09:57;35.95;;;23.30;;
76403;SDS011;65232;48.358;2.122;2024-01-16T02:10:25;39.25;;;23.42;;
76403;SDS011;65232;48.358;2.122;2024-01-16T02:10:51;34.78;;;22.88;;
76403;SDS011;65232;48.358;2.122;2024-01-16T02:11:16;37.60;;;22.77;;
76403;SDS011;65232;48.358;2.122;2024-01-16T02:11:42;34.97;;;23.00;;
76403;SDS011;65232;48.358;2.122;2024-01-16T02:12:08;30.88;;;20.95;;
76403;SDS011;65232;48.358;2.122;2024-01-16T02:12:33;35.35;;;20.45;;
76403;SDS011;65232;48.358;2.122;2024-01-16T02:12:59;30.70;;;20.45;;
76403;SDS011;65232;48.358;2.122;2024-01-16T02:13:25;35.40;;;22.52;;
76403;SDS011;65232;48.358;2.122;2024-01-16T02:13:50;39.92;;;20.85;;
76403;SDS011;65232;48.358;2.122;2024-01-16T02:14:16;32.97;;;20.85;;
76403;SDS011;65232;48.358;2.122;2024-01-16T02:14:41;31.30;;;20.38;;
76403;SDS011;65232;48.358;2.122;2024-01-16T02:15:07;33.80;;;22.42;;
76403;SDS011;65232;48.358;2.122;2024-01-16T02:15:33;37.42;;;22.90;;
76403;SDS011;65232;48.358;2.122;2024-01-16T02:15:58;30.90;;;20.70;;
76403;SDS011;65232;48.358;2.122;2024-01-16T02:16:24;35.85;;;21.63;;
76403;SDS011;65232;48.358;2.122;2024-01-16T02:16:49;32.97;;;20.35;;
76403;SDS011;65232;48.358;2.122;2024-01-16T02:17:16;32.05;;;21.30;;
76403;SDS011;65232;48.358;2.122;2024-01-16T02:17:41;28.67;;;19.70;;
76403;SDS011;65232;48.358;2.122;2024-01-16T02:18:07;32.10;;;21.33;;
76403;SDS011;65232;48.358;2.122;2024-01-16T02:18:33;26.80;;;18.17;;
76403;SDS011;65232;48.358;2.122;2024-01-16T02:18:58;29.33;;;16.67;;
76403;SDS011;65232;48.358;2.122;2024-01-16T02:19:24;24.10;;;16.63;;
76403;SDS011;65232;48.358;2.122;2024-01-16T02:19:50;26.38;;;15.52;;
76403;SDS011;65232;48.358;2.122;2024-01-16T02:20:16;26.38;;;16.60;;
76403;SDS011;65232;48.358;2.122;2024-01-16T02:20:41;25.60;;;16.67;;
76403;SDS011;65232;48.358;2.122;2024-01-16T02:21:07;28.10;;;16.25;;
76403;SDS011;65232;48.358;2.122;2024-01-16T02:21:39;23.77;;;15.57;;
76403;SDS011;65232;48.358;2.122;2024-01-16T02:22:09;26.45;;;16.17;;
76403;SDS011;65232;48.358;2.122;2024-01-16T02:22:42;26.45;;;16.00;;
76403;SDS011;65232;48.358;2.122;2024-01-16T02:23:15;23.17;;;15.73;;
76403;SDS011;65232;48.358;2.122;2024-01-16T02:23:51;25.10;;;15.80;;
76403;SDS011;65232;48.358;2.122;2024-01-16T02:24:17;27.70;;;16.15;;
76403;SDS011;65232;48.358;2.122;2024-01-16T02:24:44;28.92;;;16.90;;
76403;SDS011;65232;48.358;2.122;2024-01-16T02:25:09;27.00;;;16.30;;
76403;SDS011;65232;48.358;2.122;2024-01-16T02:25:35;28.05;;;17.80;;
76403;SDS011;65232;48.358;2.122;2024-01-16T02:26:01;25.83;;;16.02;;
76403;SDS011;65232;48.358;2.122;2024-01-16T02:26:27;27.25;;;16.90;;
76403;SDS011;65232;48.358;2.122;2024-01-16T02:26:53;28.48;;;16.92;;
76403;SDS011;65232;48.358;2.122;2024-01-16T02:27:18;28.15;;;15.75;;
76403;SDS011;65232;48.358;2.122;2024-01-16T02:27:44;26.35;;;17.25;;
76403;SDS011;65232;48.358;2.122;2024-01-16T02:28:09;26.10;;;16.15;;
76403;SDS011;65232;48.358;2.122;2024-01-16T02:28:35;26.88;;;17.17;;
76403;SDS011;65232;48.358;2.122;2024-01-16T02:29:01;24.70;;;16.33;;
76403;SDS011;65232;48.358;2.122;2024-01-16T02:29:27;27.35;;;17.48;;
76403;SDS011;65232;48.358;2.122;2024-01-16T02:29:53;28.27;;;16.00;;
76403;SDS011;65232;48.358;2.122;2024-01-16T02:30:18;23.20;;;15.63;;
76403;SDS011;65232;48.358;2.122;2024-01-16T02:30:44;24.80;;;15.75;;
76403;SDS011;65232;48.358;2.122;2024-01-16T02:31:09;24.15;;;15.63;;
76403;SDS011;65232;48.358;2.122;2024-01-16T02:31:34;25.45;;;16.08;;
76403;SDS011;65232;48.358;2.122;2024-01-16T02:32:00;24.20;;;15.93;;
76403;SDS011;65232;48.358;2.122;2024-01-16T02:32:25;23.38;;;15.88;;
76403;SDS011;65232;48.358;2.122;2024-01-16T02:32:51;26.77;;;16.50;;
76403;SDS011;65232;48.358;2.122;2024-01-16T02:33:16;30.10;;;17.58;;
76403;SDS011;65232;48.358;2.122;2024-01-16T02:33:42;23.58;;;15.40;;
76403;SDS011;65232;48.358;2.122;2024-01-16T02:34:07;27.10;;;15.70;;
76403;SDS011;65232;48.358;2.122;2024-01-16T02:34:34;27.00;;;17.27;;